createdAt,value
2023-04-05T00:02:18.694Z,2.99
2023-04-05T00:04:50.604Z,2.97
2023-04-05T00:07:19.137Z,2.95
2023-04-05T00:09:46.500Z,2.93
2023-04-05T00:12:13.631Z,2.92
2023-04-05T00:14:40.781Z,2.89
2023-04-05T00:17:09.491Z,2.88
2023-04-05T00:19:39.205Z,2.85
2023-04-05T00:22:06.284Z,2.84
2023-04-05T00:24:33.984Z,2.83
2023-04-05T00:27:01.272Z,2.81
2023-04-05T00:29:28.548Z,2.80
2023-04-05T00:31:56.502Z,2.78
2023-04-05T00:34:23.614Z,2.76
2023-04-05T00:36:50.876Z,2.75
2023-04-05T00:39:17.836Z,2.74
2023-04-05T00:41:46.897Z,2.70
2023-04-05T00:44:15.525Z,2.68
2023-04-05T00:46:42.536Z,2.67
2023-04-05T00:49:10.252Z,2.63
2023-04-05T00:51:38.076Z,2.62
2023-04-05T00:54:06.245Z,2.59
2023-04-05T00:56:33.268Z,2.59
2023-04-05T00:59:00.669Z,2.59
2023-04-05T01:01:29.001Z,2.56
2023-04-05T01:04:03.464Z,2.54
2023-04-05T01:07:04.643Z,2.51
2023-04-05T01:09:59.788Z,2.49
2023-04-05T01:16:57.975Z,2.41
2023-04-05T01:19:29.848Z,2.39
2023-04-05T01:22:26.461Z,2.36
2023-04-05T01:25:47.036Z,2.34
2023-04-05T01:29:12.193Z,2.32
2023-04-05T01:31:48.605Z,2.31
2023-04-05T01:34:49.969Z,2.28
2023-04-05T01:37:22.858Z,2.27
2023-04-05T01:39:50.923Z,2.23
2023-04-05T01:42:25.352Z,2.23
2023-04-05T01:44:57.414Z,2.21
2023-04-05T01:47:24.795Z,2.18
2023-04-05T01:49:51.798Z,2.18
2023-04-05T01:52:18.875Z,2.16
2023-04-05T01:54:45.905Z,2.15
2023-04-05T01:57:12.848Z,2.11
2023-04-05T01:59:39.771Z,2.12
2023-04-05T02:02:06.748Z,2.09
2023-04-05T02:04:33.832Z,2.07
2023-04-05T02:07:00.970Z,2.07
2023-04-05T02:09:28.014Z,2.06
2023-04-05T02:11:55.262Z,2.06
2023-04-05T02:14:22.384Z,2.05
2023-04-05T02:16:49.344Z,2.03
2023-04-05T02:19:22.894Z,2.02
2023-04-05T02:21:53.578Z,2.02
2023-04-05T02:24:21.687Z,2.01
2023-04-05T02:26:48.679Z,2.00
2023-04-05T02:29:15.658Z,1.99
2023-04-05T02:31:42.609Z,1.96
2023-04-05T02:34:11.525Z,1.95
2023-04-05T02:36:38.490Z,1.94
2023-04-05T02:39:05.466Z,1.92
2023-04-05T02:41:32.474Z,1.90
2023-04-05T02:44:00.018Z,1.89
2023-04-05T02:46:30.634Z,1.87
2023-04-05T02:48:57.979Z,1.86
2023-04-05T02:51:27.908Z,1.85
2023-04-05T02:53:54.972Z,1.85
2023-04-05T02:56:22.108Z,1.83
2023-04-05T02:58:49.526Z,1.85
2023-04-05T03:01:22.603Z,1.84
2023-04-05T03:03:50.182Z,1.83
2023-04-05T03:06:17.432Z,1.81
2023-04-05T03:08:49.208Z,1.82
2023-04-05T03:11:20.905Z,1.81
2023-04-05T03:13:51.717Z,1.81
2023-04-05T03:16:34.331Z,1.80
2023-04-05T03:19:07.894Z,1.79
2023-04-05T03:21:37.892Z,1.78
2023-04-05T03:24:13.076Z,1.77
2023-04-05T03:26:45.540Z,1.77
2023-04-05T03:29:13.648Z,1.76
2023-04-05T03:31:40.995Z,1.76
2023-04-05T03:34:09.581Z,1.76
2023-04-05T03:36:45.930Z,1.74
2023-04-05T03:39:28.220Z,1.75
2023-04-05T03:41:56.717Z,1.73
2023-04-05T03:44:23.679Z,1.75
2023-04-05T03:46:50.883Z,1.75
2023-04-05T03:49:19.808Z,1.74
2023-04-05T03:51:47.032Z,1.75
2023-04-05T03:54:14.548Z,1.75
2023-04-05T03:56:42.994Z,1.76
2023-04-05T03:59:14.566Z,1.75
2023-04-05T04:01:42.225Z,1.75
2023-04-05T04:04:09.168Z,1.73
2023-04-05T04:06:37.195Z,1.73
2023-04-05T04:09:05.761Z,1.72
2023-04-05T04:11:32.880Z,1.70
2023-04-05T04:14:03.111Z,1.69
2023-04-05T04:17:08.460Z,1.66
2023-04-05T04:19:50.970Z,1.63
2023-04-05T04:22:45.815Z,1.59
2023-04-05T04:25:39.058Z,1.56
2023-04-05T04:28:27.962Z,1.53
2023-04-05T04:31:17.001Z,1.49
2023-04-05T04:34:10.074Z,1.46
2023-04-05T04:37:01.433Z,1.42
2023-04-05T04:39:35.534Z,1.38
2023-04-05T04:42:23.798Z,1.32
2023-04-05T04:45:18.565Z,1.28
2023-04-05T04:47:57.638Z,1.24
2023-04-05T04:50:46.526Z,1.19
2023-04-05T04:53:17.254Z,1.16
2023-04-05T04:55:44.500Z,1.11
2023-04-05T04:58:13.234Z,1.05
2023-04-05T05:00:44.336Z,1.03
2023-04-05T05:03:12.215Z,0.97
2023-04-05T05:05:43.833Z,0.91
2023-04-05T05:08:10.933Z,0.88
2023-04-05T05:10:39.920Z,0.85
2023-04-05T05:13:07.036Z,0.81
2023-04-05T05:15:34.081Z,0.78
2023-04-05T05:18:01.249Z,0.76
2023-04-05T05:20:28.563Z,0.74
2023-04-05T05:22:56.192Z,0.71
2023-04-05T05:25:23.117Z,0.69
2023-04-05T05:27:53.363Z,0.66
2023-04-05T05:30:23.173Z,0.64
2023-04-05T05:32:50.621Z,0.62
2023-04-05T05:35:17.696Z,0.59
2023-04-05T05:37:44.759Z,0.57
2023-04-05T05:40:13.255Z,0.56
2023-04-05T05:42:40.548Z,0.54
2023-04-05T05:45:08.710Z,0.52
2023-04-05T05:47:36.133Z,0.51
2023-04-05T05:50:03.825Z,0.50
2023-04-05T05:52:31.089Z,0.49
2023-04-05T05:54:58.099Z,0.47
2023-04-05T05:57:25.016Z,0.48
2023-04-05T05:59:51.977Z,0.46
2023-04-05T06:02:19.314Z,0.45
2023-04-05T06:04:46.284Z,0.45
2023-04-05T06:07:13.706Z,0.45
2023-04-05T06:09:40.702Z,0.45
2023-04-05T06:12:07.768Z,0.45
2023-04-05T06:14:34.723Z,0.46
2023-04-05T06:17:01.673Z,0.48
2023-04-05T06:19:28.629Z,0.48
2023-04-05T06:21:55.588Z,0.50
2023-04-05T06:24:22.581Z,0.53
2023-04-05T06:26:51.851Z,0.55
2023-04-05T06:29:18.865Z,0.57
2023-04-05T06:31:47.861Z,0.61
2023-04-05T06:34:14.925Z,0.64
2023-04-05T06:36:42.674Z,0.69
2023-04-05T06:39:09.706Z,0.74
2023-04-05T06:41:36.757Z,0.80
2023-04-05T06:44:03.691Z,0.85
2023-04-05T06:46:30.727Z,0.92
2023-04-05T06:48:58.866Z,0.99
2023-04-05T06:51:26.639Z,1.07
2023-04-05T06:53:53.593Z,1.15
2023-04-05T06:56:20.528Z,1.24
2023-04-05T06:58:47.837Z,1.32
2023-04-05T07:01:14.875Z,1.43
2023-04-05T07:03:41.817Z,1.52
2023-04-05T07:06:09.701Z,1.64
2023-04-05T07:08:36.632Z,1.74
2023-04-05T07:11:03.742Z,1.86
2023-04-05T07:13:30.814Z,1.99
2023-04-05T07:16:03.255Z,2.10
2023-04-05T07:18:30.924Z,2.24
2023-04-05T07:21:03.925Z,2.36
2023-04-05T07:23:31.343Z,2.50
2023-04-05T07:26:05.824Z,2.60
2023-04-05T07:28:35.363Z,2.72
2023-04-05T07:31:03.946Z,2.84
2023-04-05T07:33:31.129Z,2.96
2023-04-05T07:35:58.384Z,3.09
2023-04-05T07:38:27.510Z,3.21
2023-04-05T07:40:54.475Z,3.34
2023-04-05T07:43:21.637Z,3.45
2023-04-05T07:45:48.717Z,3.59
2023-04-05T07:48:15.842Z,3.75
2023-04-05T07:50:47.510Z,3.88
2023-04-05T07:53:14.995Z,4.01
2023-04-05T07:55:43.021Z,4.11
2023-04-05T07:58:10.935Z,4.22
2023-04-05T08:00:38.611Z,4.33
2023-04-05T08:03:06.901Z,4.43
2023-04-05T08:05:33.872Z,4.53
2023-04-05T08:08:00.951Z,4.63
2023-04-05T08:10:27.945Z,4.73
2023-04-05T08:12:55.042Z,4.82
2023-04-05T08:15:22.018Z,4.92
2023-04-05T08:17:49.145Z,5.02
2023-04-05T08:20:16.159Z,5.09
2023-04-05T08:22:43.247Z,5.18
2023-04-05T08:25:11.825Z,5.30
2023-04-05T08:27:38.746Z,5.39
2023-04-05T08:30:06.788Z,5.49
2023-04-05T08:32:35.328Z,5.60
2023-04-05T08:35:02.477Z,5.71
2023-04-05T08:37:29.487Z,5.82
2023-04-05T08:39:56.431Z,5.89
2023-04-05T08:42:47.572Z,5.95
2023-04-05T08:45:17.977Z,5.97
2023-04-05T08:47:46.457Z,6.03
2023-04-05T08:50:14.250Z,6.12
2023-04-05T08:52:48.594Z,6.23
2023-04-05T08:55:16.773Z,6.33
2023-04-05T08:57:49.831Z,6.42
2023-04-05T09:00:18.069Z,6.54
2023-04-05T09:02:51.065Z,6.67
2023-04-05T09:05:21.193Z,6.78
2023-04-05T09:07:49.094Z,6.89
2023-04-05T09:10:18.686Z,6.99
2023-04-05T09:12:45.847Z,7.13
2023-04-05T09:15:14.083Z,7.25
2023-04-05T09:17:43.387Z,7.35
2023-04-05T09:20:10.379Z,7.49
2023-04-05T09:22:47.228Z,7.61
2023-04-05T09:25:43.761Z,7.78
2023-04-05T09:28:10.900Z,7.90
2023-04-05T09:30:38.409Z,8.03
2023-04-05T09:33:10.385Z,8.10
2023-04-05T09:35:37.959Z,8.13
2023-04-05T09:38:05.440Z,8.15
2023-04-05T09:40:48.535Z,8.24
2023-04-05T09:43:41.630Z,8.34
2023-04-05T09:46:34.072Z,8.38
2023-04-05T09:49:02.339Z,8.43
2023-04-05T09:51:37.772Z,8.51
2023-04-05T09:54:11.226Z,8.58
2023-04-05T09:56:41.936Z,8.66
2023-04-05T09:59:12.343Z,8.78
2023-04-05T10:01:44.425Z,8.89
2023-04-05T10:04:11.546Z,8.96
2023-04-05T10:06:43.026Z,9.06
2023-04-05T10:09:12.013Z,9.14
2023-04-05T10:11:39.438Z,9.21
2023-04-05T10:14:08.379Z,9.31
2023-04-05T10:17:16.170Z,9.38
2023-04-05T10:20:11.580Z,9.45
2023-04-05T10:23:12.384Z,9.49
2023-04-05T10:26:04.623Z,9.53
2023-04-05T10:28:37.448Z,9.54
2023-04-05T10:31:14.196Z,9.55
2023-04-05T10:33:47.471Z,9.62
2023-04-05T10:36:45.410Z,9.63
2023-04-05T10:39:45.780Z,9.64
2023-04-05T10:42:28.154Z,9.68
2023-04-05T10:45:06.780Z,9.74
2023-04-05T10:47:42.653Z,9.78
2023-04-05T10:50:20.178Z,9.86
2023-04-05T10:52:48.148Z,9.89
2023-04-05T10:55:16.924Z,9.99
2023-04-05T10:57:46.189Z,10.09
2023-04-05T11:00:16.322Z,10.18
2023-04-05T11:02:44.787Z,10.33
2023-04-05T11:05:34.512Z,10.56
2023-04-05T11:08:11.082Z,10.86
2023-04-05T11:10:39.488Z,11.19
2023-04-05T11:13:08.814Z,11.54
2023-04-05T11:15:36.536Z,11.89
2023-04-05T11:18:18.065Z,12.20
2023-04-05T11:21:06.408Z,12.56
2023-04-05T11:23:53.358Z,12.95
2023-04-05T11:26:20.412Z,13.09
2023-04-05T11:28:47.380Z,13.32
2023-04-05T11:31:18.329Z,13.55
2023-04-05T11:33:52.180Z,13.79
2023-04-05T11:36:36.815Z,13.82
2023-04-05T11:39:27.691Z,14.09
2023-04-05T11:42:16.644Z,14.36
2023-04-05T11:44:49.399Z,14.36
2023-04-05T11:47:23.283Z,14.60
2023-04-05T11:49:51.731Z,14.77
2023-04-05T11:52:21.686Z,14.92
2023-04-05T11:54:49.903Z,15.07
2023-04-05T11:57:24.057Z,15.16
2023-04-05T11:59:53.126Z,15.21
2023-04-05T12:02:21.516Z,15.15
2023-04-05T12:04:58.345Z,15.33
2023-04-05T12:07:29.461Z,15.20
2023-04-05T12:10:08.770Z,15.16
2023-04-05T12:12:40.505Z,15.34
2023-04-05T12:15:11.604Z,15.45
2023-04-05T12:17:42.774Z,15.35
2023-04-05T12:20:12.681Z,15.18
2023-04-05T12:22:42.540Z,15.39
2023-04-05T12:25:10.961Z,15.54
2023-04-05T12:27:39.077Z,15.71
2023-04-05T12:30:16.993Z,15.80
2023-04-05T12:32:51.416Z,16.00
2023-04-05T12:35:31.788Z,16.22
2023-04-05T12:38:00.894Z,16.39
2023-04-05T12:40:30.115Z,16.49
2023-04-05T12:43:09.380Z,16.54
2023-04-05T12:45:40.505Z,16.59
2023-04-05T12:48:11.936Z,16.67
2023-04-05T12:50:44.878Z,16.69
2023-04-05T12:53:23.358Z,16.85
2023-04-05T12:55:55.523Z,17.07
2023-04-05T12:58:42.886Z,17.26
2023-04-05T13:01:10.636Z,17.37
2023-04-05T13:03:37.851Z,17.39
2023-04-05T13:06:04.797Z,17.53
2023-04-05T13:08:31.743Z,17.64
2023-04-05T13:10:58.666Z,17.74
2023-04-05T13:13:25.730Z,17.86
2023-04-05T13:15:52.881Z,17.87
2023-04-05T13:18:20.519Z,17.90
2023-04-05T13:20:47.539Z,17.83
2023-04-05T13:23:14.496Z,17.83
2023-04-05T13:25:45.223Z,17.58
2023-04-05T13:28:12.265Z,17.47
2023-04-05T13:30:39.282Z,17.35
2023-04-05T13:33:06.699Z,17.19
2023-04-05T13:35:34.035Z,17.28
2023-04-05T13:38:04.341Z,17.37
2023-04-05T13:40:32.541Z,17.39
2023-04-05T13:42:59.780Z,17.27
2023-04-05T13:45:27.975Z,17.10
2023-04-05T13:47:55.639Z,17.03
2023-04-05T13:50:22.733Z,16.56
2023-04-05T13:52:49.712Z,16.42
2023-04-05T13:55:16.777Z,16.20
2023-04-05T13:57:43.779Z,16.26
2023-04-05T14:00:11.634Z,16.23
2023-04-05T14:02:39.154Z,16.21
2023-04-05T14:05:08.483Z,16.28
2023-04-05T14:07:35.950Z,16.28
2023-04-05T14:10:03.219Z,16.20
2023-04-05T14:12:31.471Z,16.20
2023-04-05T14:15:00.096Z,16.25
2023-04-05T14:17:27.149Z,16.27
2023-04-05T14:19:54.122Z,16.38
2023-04-05T14:22:21.551Z,16.37
2023-04-05T14:24:48.657Z,16.44
2023-04-05T14:27:15.778Z,16.47
2023-04-05T14:29:44.079Z,16.47
2023-04-05T14:32:11.087Z,16.41
2023-04-05T14:34:38.198Z,16.35
2023-04-05T14:37:06.589Z,16.36
2023-04-05T14:39:34.115Z,16.32
2023-04-05T14:42:01.406Z,16.33
2023-04-05T14:44:28.434Z,16.33
2023-04-05T14:46:55.419Z,16.40
2023-04-05T14:49:22.414Z,16.43
2023-04-05T14:51:49.475Z,16.35
2023-04-05T14:54:16.858Z,16.36
2023-04-05T14:56:44.048Z,16.43
2023-04-05T14:59:11.107Z,16.45
2023-04-05T15:01:38.234Z,16.49
2023-04-05T15:04:07.461Z,16.43
2023-04-05T15:06:35.724Z,16.42
2023-04-05T15:09:02.654Z,16.45
2023-04-05T15:11:29.697Z,16.54
2023-04-05T15:13:56.624Z,16.61
2023-04-05T15:16:25.049Z,16.72
2023-04-05T15:18:52.171Z,16.79
2023-04-05T15:21:19.991Z,16.83
2023-04-05T15:23:46.960Z,16.86
2023-04-05T15:26:13.898Z,16.94
2023-04-05T15:28:41.104Z,16.99
2023-04-05T15:31:08.183Z,17.05
2023-04-05T15:33:35.229Z,17.03
2023-04-05T15:36:02.268Z,17.08
2023-04-05T15:38:29.222Z,16.99
2023-04-05T15:40:57.790Z,16.88
2023-04-05T15:43:24.772Z,16.77
2023-04-05T15:45:51.773Z,16.65
2023-04-05T15:48:18.736Z,16.50
2023-04-05T15:50:45.986Z,16.38
2023-04-05T15:53:13.190Z,16.24
2023-04-05T15:55:40.130Z,16.12
2023-04-05T15:58:07.406Z,15.99
2023-04-05T16:00:34.565Z,15.88
2023-04-05T16:03:02.190Z,15.79
2023-04-05T16:05:29.279Z,15.72
2023-04-05T16:07:56.295Z,15.68
2023-04-05T16:10:23.361Z,15.65
2023-04-05T16:12:52.435Z,15.65
2023-04-05T16:15:19.545Z,15.60
2023-04-05T16:17:46.765Z,15.50
2023-04-05T16:20:13.863Z,15.44
2023-04-05T16:22:41.426Z,15.37
2023-04-05T16:25:08.432Z,15.30
2023-04-05T16:27:36.940Z,15.23
2023-04-05T16:30:04.271Z,15.18
2023-04-05T16:32:31.310Z,15.14
2023-04-05T16:34:58.355Z,15.05
2023-04-05T16:37:25.580Z,14.97
2023-04-05T16:39:52.610Z,14.91
2023-04-05T16:42:19.635Z,14.82
2023-04-05T16:44:46.595Z,14.70
2023-04-05T16:47:13.540Z,14.63
2023-04-05T16:49:40.531Z,14.48
2023-04-05T16:52:07.461Z,14.36
2023-04-05T16:54:34.403Z,14.26
2023-04-05T16:57:02.150Z,14.13
2023-04-05T16:59:29.239Z,13.98
2023-04-05T17:01:56.190Z,13.88
2023-04-05T17:04:23.212Z,13.74
2023-04-05T17:06:51.473Z,13.63
2023-04-05T17:09:19.432Z,13.52
2023-04-05T17:11:46.809Z,13.41
2023-04-05T17:14:13.808Z,13.27
2023-04-05T17:16:40.904Z,13.15
2023-04-05T17:19:07.868Z,13.03
2023-04-05T17:21:35.511Z,12.92
2023-04-05T17:24:03.062Z,12.80
2023-04-05T17:26:30.258Z,12.68
2023-04-05T17:28:57.281Z,12.57
2023-04-05T17:31:24.809Z,12.47
2023-04-05T17:33:51.792Z,12.36
2023-04-05T17:36:18.843Z,12.25
2023-04-05T17:38:46.067Z,12.15
2023-04-05T17:41:13.050Z,12.03
2023-04-05T17:43:40.320Z,11.91
2023-04-05T17:46:09.269Z,11.80
2023-04-05T17:48:36.413Z,11.68
2023-04-05T17:51:09.367Z,11.58
2023-04-05T17:53:36.412Z,11.44
2023-04-05T17:56:03.673Z,11.32
2023-04-05T17:58:32.223Z,11.22
2023-04-05T18:00:59.662Z,11.09
2023-04-05T18:03:27.525Z,10.97
2023-04-05T18:05:55.829Z,10.83
2023-04-05T18:08:23.808Z,10.68
2023-04-05T18:10:57.653Z,10.47
2023-04-05T18:13:26.302Z,10.28
2023-04-05T18:16:00.045Z,10.09
2023-04-05T18:18:28.465Z,9.92
2023-04-05T18:20:56.416Z,9.75
2023-04-05T18:23:24.861Z,9.60
2023-04-05T18:25:53.628Z,9.46
2023-04-05T18:28:23.248Z,9.34
2023-04-05T18:30:51.650Z,9.24
2023-04-05T18:33:18.872Z,9.16
2023-04-05T18:35:50.435Z,9.10
2023-04-05T18:38:17.720Z,9.04
2023-04-05T18:40:44.778Z,8.97
2023-04-05T18:43:11.847Z,8.91
2023-04-05T18:45:39.440Z,8.82
2023-04-05T18:48:06.540Z,8.72
2023-04-05T18:50:34.409Z,8.65
2023-04-05T18:53:01.655Z,8.55
2023-04-05T18:55:28.592Z,8.49
2023-04-05T18:57:55.551Z,8.42
2023-04-05T19:00:22.496Z,8.37
2023-04-05T19:02:49.451Z,8.32
2023-04-05T19:05:16.503Z,8.27
2023-04-05T19:07:43.779Z,8.22
2023-04-05T19:10:11.784Z,8.16
2023-04-05T19:12:38.748Z,8.11
2023-04-05T19:15:07.120Z,8.07
2023-04-05T19:17:34.181Z,8.01
2023-04-05T19:20:01.149Z,7.98
2023-04-05T19:22:28.164Z,7.94
2023-04-05T19:24:55.331Z,7.90
2023-04-05T19:27:22.283Z,7.87
2023-04-05T19:29:49.350Z,7.83
2023-04-05T19:32:16.293Z,7.78
2023-04-05T19:34:43.266Z,7.73
2023-04-05T19:37:10.330Z,7.67
2023-04-05T19:39:37.365Z,7.63
2023-04-05T19:42:05.909Z,7.58
2023-04-05T19:44:57.911Z,7.52
2023-04-05T19:47:26.293Z,7.46
2023-04-05T19:49:56.964Z,7.41
2023-04-05T19:52:48.124Z,7.33
2023-04-05T19:55:41.568Z,7.26
2023-04-05T19:58:10.363Z,7.23
2023-04-05T20:00:56.544Z,7.17
2023-04-05T20:03:32.791Z,7.12
2023-04-05T20:06:07.921Z,7.09
2023-04-05T20:08:37.579Z,7.04
2023-04-05T20:11:16.008Z,7.01
2023-04-05T20:13:55.091Z,6.99
2023-04-05T20:16:34.119Z,6.96
2023-04-05T20:19:11.347Z,6.93
2023-04-05T20:21:38.784Z,6.90
2023-04-05T20:24:09.683Z,6.83
2023-04-05T20:26:36.676Z,6.75
2023-04-05T20:29:08.388Z,6.68
2023-04-05T20:31:40.078Z,6.59
2023-04-05T20:34:21.797Z,6.45
2023-04-05T20:36:52.143Z,6.38
2023-04-05T20:39:19.578Z,6.29
2023-04-05T20:41:47.137Z,6.22
2023-04-05T20:44:27.478Z,6.14
2023-04-05T20:46:57.114Z,6.08
2023-04-05T20:49:25.909Z,6.05
2023-04-05T20:51:55.721Z,6.03
2023-04-05T20:54:23.021Z,6.00
2023-04-05T20:56:49.949Z,5.99
2023-04-05T20:59:17.041Z,5.97
2023-04-05T21:01:46.960Z,5.95
2023-04-05T21:04:14.484Z,5.94
2023-04-05T21:06:42.252Z,5.93
2023-04-05T21:09:09.843Z,5.93
2023-04-05T21:11:37.308Z,5.91
2023-04-05T21:14:04.502Z,5.90
2023-04-05T21:16:31.683Z,5.91
2023-04-05T21:18:58.774Z,5.88
2023-04-05T21:21:26.143Z,5.88
2023-04-05T21:23:53.125Z,5.86
2023-04-05T21:26:20.112Z,5.85
2023-04-05T21:28:47.036Z,5.84
2023-04-05T21:31:13.984Z,5.83
2023-04-05T21:33:41.564Z,5.80
2023-04-05T21:36:08.701Z,5.80
2023-04-05T21:38:35.843Z,5.77
2023-04-05T21:41:02.823Z,5.74
2023-04-05T21:43:29.820Z,5.76
2023-04-05T21:45:56.861Z,5.77
2023-04-05T21:48:24.702Z,5.76
2023-04-05T21:50:51.896Z,5.74
2023-04-05T21:53:18.934Z,5.72
2023-04-05T21:55:46.172Z,5.71
2023-04-05T21:58:13.207Z,5.67
2023-04-05T22:00:40.212Z,5.66
2023-04-05T22:03:07.322Z,5.64
2023-04-05T22:05:38.349Z,5.62
2023-04-05T22:08:07.097Z,5.59
2023-04-05T22:10:35.288Z,5.56
2023-04-05T22:13:02.307Z,5.55
2023-04-05T22:15:29.318Z,5.52
2023-04-05T22:17:56.380Z,5.51
2023-04-05T22:20:23.422Z,5.47
2023-04-05T22:22:50.358Z,5.46
2023-04-05T22:25:17.366Z,5.41
2023-04-05T22:27:44.523Z,5.38
2023-04-05T22:30:12.118Z,5.34
2023-04-05T22:32:39.210Z,5.31
2023-04-05T22:35:06.888Z,5.32
2023-04-05T22:37:36.427Z,5.31
2023-04-05T22:40:06.042Z,5.33
2023-04-05T22:42:32.993Z,5.34
2023-04-05T22:45:00.078Z,5.35
2023-04-05T22:47:27.155Z,5.36
2023-04-05T22:49:54.232Z,5.37
2023-04-05T22:52:21.401Z,5.37
2023-04-05T22:54:48.443Z,5.39
2023-04-05T22:57:15.704Z,5.41
2023-04-05T22:59:43.008Z,5.44
2023-04-05T23:02:12.138Z,5.46
2023-04-05T23:04:39.159Z,5.46
2023-04-05T23:07:06.165Z,5.47
2023-04-05T23:09:33.264Z,5.47
2023-04-05T23:12:00.258Z,5.48
2023-04-05T23:14:27.363Z,5.47
2023-04-05T23:16:54.318Z,5.47
2023-04-05T23:19:21.461Z,5.49
2023-04-05T23:21:49.018Z,5.50
2023-04-05T23:24:16.067Z,5.48
2023-04-05T23:26:43.004Z,5.49
2023-04-05T23:29:10.110Z,5.49
2023-04-05T23:31:37.225Z,5.49
2023-04-05T23:34:04.232Z,5.46
2023-04-05T23:36:31.201Z,5.46
2023-04-05T23:39:00.001Z,5.45
2023-04-05T23:41:27.156Z,5.43
2023-04-05T23:43:54.126Z,5.40
2023-04-05T23:46:22.038Z,5.39
2023-04-05T23:48:49.170Z,5.37
2023-04-05T23:51:16.191Z,5.36
2023-04-05T23:53:43.189Z,5.33
2023-04-05T23:56:10.285Z,5.34
2023-04-05T23:58:37.270Z,5.32
